Time;durP1;ratioP1;P1;durP2;ratioP2;P2;SDS_P1;SDS_P2;PMS_P1;PMS_P2;Temp;Humidity;BMP_temperature;BMP_pressure;BME280_temperature;BME280_humidity;BME280_pressure;Samples;Min_cycle;Max_cycle;Signal;HPM_P1;HPM_P2
2021/08/16 00:01:40;;;;;;;3.97;1.43;;;19.50;99.90;;;;;;5032974;28;20474;-84
2021/08/16 00:04:06;;;;;;;6.00;2.03;;;19.60;99.90;;;;;;5032995;28;20442;-84
2021/08/16 00:06:33;;;;;;;3.97;1.73;;;19.60;99.90;;;;;;5033015;28;20454;-85
2021/08/16 00:09:00;;;;;;;2.90;2.17;;;19.60;99.90;;;;;;5032833;28;20960;-85
2021/08/16 00:11:26;;;;;;;2.40;1.67;;;19.60;99.90;;;;;;5033112;28;20494;-85
2021/08/16 00:13:53;;;;;;;1.80;1.60;;;19.60;99.90;;;;;;5033217;28;20451;-84
2021/08/16 00:16:20;;;;;;;2.57;1.83;;;19.60;99.90;;;;;;5033032;28;20453;-85
2021/08/16 00:18:48;;;;;;;2.90;2.13;;;19.70;99.90;;;;;;5032887;28;20470;-85
2021/08/16 00:21:15;;;;;;;1.20;1.00;;;19.70;99.90;;;;;;5033252;28;20565;-85
2021/08/16 00:23:42;;;;;;;3.00;2.23;;;19.70;99.90;;;;;;5035706;28;20450;-84
2021/08/16 00:26:09;;;;;;;3.23;2.00;;;19.70;99.90;;;;;;5036314;28;20445;-84
2021/08/16 00:28:36;;;;;;;4.30;1.93;;;19.60;99.90;;;;;;5036330;28;20464;-84
2021/08/16 00:31:03;;;;;;;2.00;1.63;;;19.70;99.90;;;;;;5036006;28;20478;-85
2021/08/16 00:33:29;;;;;;;1.80;1.67;;;19.70;99.90;;;;;;5036304;28;20467;-85
2021/08/16 00:35:58;;;;;;;3.93;1.80;;;19.70;99.90;;;;;;5036273;28;20453;-85
2021/08/16 00:38:24;;;;;;;4.50;2.03;;;19.70;99.90;;;;;;5035898;28;20489;-85
2021/08/16 00:40:51;;;;;;;1.80;1.63;;;19.70;99.90;;;;;;5035991;28;20415;-85
2021/08/16 00:43:18;;;;;;;1.10;1.10;;;19.70;99.90;;;;;;5036543;28;20466;-85
2021/08/16 00:45:46;;;;;;;1.83;1.53;;;19.70;99.90;;;;;;5036126;28;20794;-85
2021/08/16 00:48:13;;;;;;;4.27;1.50;;;19.60;99.90;;;;;;5036048;28;20446;-85
2021/08/16 00:50:41;;;;;;;9.40;2.43;;;19.60;99.90;;;;;;5036026;28;20482;-85
2021/08/16 00:53:09;;;;;;;4.00;2.93;;;19.60;99.90;;;;;;5035832;28;20463;-85
2021/08/16 00:55:36;;;;;;;3.07;1.93;;;19.60;99.90;;;;;;5035461;28;20985;-84
2021/08/16 00:58:03;;;;;;;4.47;1.97;;;19.60;99.90;;;;;;5035527;28;20446;-85
2021/08/16 01:00:30;;;;;;;2.03;1.90;;;19.50;99.90;;;;;;5035814;28;20431;-84
2021/08/16 01:02:57;;;;;;;2.77;1.97;;;19.50;99.90;;;;;;5035496;28;20967;-85
2021/08/16 01:05:23;;;;;;;2.10;1.80;;;19.50;99.90;;;;;;5035689;28;20439;-84
2021/08/16 01:07:51;;;;;;;1.43;1.10;;;19.50;99.90;;;;;;5035634;28;20451;-84
2021/08/16 01:10:20;;;;;;;1.53;1.43;;;19.50;99.90;;;;;;5035541;28;20482;-85
2021/08/16 01:12:47;;;;;;;2.43;1.83;;;19.50;99.90;;;;;;5035517;28;20466;-84
2021/08/16 01:15:16;;;;;;;2.60;2.40;;;19.50;99.90;;;;;;5035467;28;20449;-84
2021/08/16 01:17:44;;;;;;;1.90;1.80;;;19.40;99.90;;;;;;5035502;28;20454;-85
2021/08/16 01:20:15;;;;;;;2.93;1.10;;;19.40;99.90;;;;;;5035246;28;20431;-85
2021/08/16 01:22:57;;;;;;;;;;;;;;;;;;;;;
2021/08/16 01:25:28;;;;;;;3.93;2.20;;;19.40;99.90;;;;;;5035143;28;20449;-84
2021/08/16 01:27:57;;;;;;;4.60;2.00;;;19.30;99.90;;;;;;5035401;28;20418;-84
2021/08/16 01:30:25;;;;;;;7.00;2.73;;;19.30;99.90;;;;;;5034942;28;20490;-85
2021/08/16 01:32:51;;;;;;;4.00;2.20;;;19.40;99.90;;;;;;5035012;28;20467;-84
2021/08/16 01:35:18;;;;;;;3.03;1.30;;;19.30;99.90;;;;;;5033953;28;20446;-85
2021/08/16 01:37:50;;;;;;;2.40;1.80;;;19.30;99.90;;;;;;5034910;28;20458;-85
2021/08/16 01:40:17;;;;;;;1.43;1.33;;;19.40;99.90;;;;;;5034964;28;20487;-85
2021/08/16 01:42:49;;;;;;;2.10;1.90;;;19.40;99.90;;;;;;5034911;28;20474;-84
2021/08/16 01:45:17;;;;;;;3.57;1.90;;;19.40;99.90;;;;;;5034870;28;20457;-85
2021/08/16 01:47:47;;;;;;;1.87;1.33;;;19.40;99.90;;;;;;5035052;28;20454;-84
2021/08/16 01:50:14;;;;;;;2.07;1.50;;;19.40;99.90;;;;;;5034577;28;20431;-85
2021/08/16 01:52:41;;;;;;;3.90;2.00;;;19.40;99.90;;;;;;5034548;28;20469;-85
2021/08/16 01:55:10;;;;;;;1.70;1.60;;;19.30;99.90;;;;;;5034820;28;20916;-84
2021/08/16 01:57:37;;;;;;;2.73;2.03;;;19.30;99.90;;;;;;5034414;28;20541;-85
2021/08/16 02:00:05;;;;;;;1.80;1.67;;;19.30;99.90;;;;;;5034472;28;20942;-85
2021/08/16 02:02:33;;;;;;;2.80;2.03;;;19.30;99.90;;;;;;5034354;28;20991;-85
2021/08/16 02:05:00;;;;;;;1.57;1.47;;;19.30;99.90;;;;;;5036476;28;20443;-84
2021/08/16 02:07:27;;;;;;;4.40;2.03;;;19.30;99.90;;;;;;5034650;28;20485;-85
2021/08/16 02:09:54;;;;;;;3.60;2.23;;;19.30;99.90;;;;;;5034151;28;20458;-85
2021/08/16 02:12:21;;;;;;;2.37;1.70;;;19.30;99.90;;;;;;5034618;28;20489;-85
2021/08/16 02:14:48;;;;;;;1.43;1.33;;;19.20;99.90;;;;;;5034430;28;20477;-84
2021/08/16 02:17:26;;;;;;;2.10;1.67;;;19.20;99.90;;;;;;5034120;28;20799;-85
2021/08/16 02:19:54;;;;;;;1.40;1.27;;;19.20;99.90;;;;;;5033875;28;20530;-85
2021/08/16 02:22:21;;;;;;;2.73;1.73;;;19.10;99.90;;;;;;5033975;28;20454;-84
2021/08/16 02:24:48;;;;;;;1.53;1.43;;;19.10;99.90;;;;;;5034138;28;20439;-85
2021/08/16 02:27:18;;;;;;;5.43;1.10;;;19.10;99.90;;;;;;5033829;28;20442;-84
2021/08/16 02:29:45;;;;;;;4.03;1.50;;;19.10;99.90;;;;;;5033769;28;21029;-84
2021/08/16 02:32:12;;;;;;;1.83;1.33;;;19.00;99.90;;;;;;5033840;28;20483;-85
2021/08/16 02:34:39;;;;;;;2.83;1.27;;;18.90;99.90;;;;;;5033734;28;20450;-85
2021/08/16 02:37:07;;;;;;;1.70;1.60;;;18.90;99.90;;;;;;5033945;28;20453;-84
2021/08/16 02:39:34;;;;;;;3.00;1.67;;;18.90;99.90;;;;;;5033602;28;20466;-85
2021/08/16 02:42:01;;;;;;;1.67;1.20;;;18.90;99.90;;;;;;5033599;28;21012;-85
2021/08/16 02:44:46;;;;;;;1.80;1.57;;;18.90;99.90;;;;;;5033975;28;20438;-84
2021/08/16 02:47:24;;;;;;;1.43;1.33;;;18.90;99.90;;;;;;5032940;28;20453;-85
2021/08/16 02:49:54;;;;;;;1.70;1.60;;;18.90;99.90;;;;;;5033891;28;20415;-85
2021/08/16 02:52:22;;;;;;;1.27;1.17;;;18.90;99.90;;;;;;5034042;28;20990;-85
2021/08/16 02:54:49;;;;;;;1.47;1.20;;;18.80;99.90;;;;;;5033944;28;20451;-85
2021/08/16 02:57:19;;;;;;;2.47;1.83;;;18.80;99.90;;;;;;5033862;28;20439;-86
2021/08/16 02:59:52;;;;;;;1.20;1.10;;;18.80;99.90;;;;;;5033818;28;20506;-85
2021/08/16 03:02:19;;;;;;;1.80;1.50;;;18.70;99.90;;;;;;5033719;28;20477;-85
2021/08/16 03:04:46;;;;;;;1.83;1.67;;;18.70;99.90;;;;;;5033534;28;20884;-85
2021/08/16 03:07:17;;;;;;;1.33;1.17;;;18.70;99.90;;;;;;5033646;28;20435;-85
2021/08/16 03:10:00;;;;;;;2.03;1.80;;;18.70;99.90;;;;;;5033317;28;20527;-86
2021/08/16 03:12:26;;;;;;;1.93;1.53;;;18.60;99.90;;;;;;5016052;28;20930;-85
2021/08/16 03:14:53;;;;;;;4.03;1.77;;;18.70;99.90;;;;;;5033626;28;20455;-85
2021/08/16 03:17:20;;;;;;;1.70;1.10;;;18.70;99.90;;;;;;5033599;28;20450;-85
2021/08/16 03:19:47;;;;;;;2.60;1.60;;;18.70;99.90;;;;;;5033521;28;20450;-86
2021/08/16 03:22:13;;;;;;;3.03;1.40;;;18.70;99.90;;;;;;5033325;28;20825;-85
2021/08/16 03:24:40;;;;;;;3.07;1.80;;;18.70;99.90;;;;;;5033807;28;20534;-85
2021/08/16 03:27:09;;;;;;;2.80;2.00;;;18.70;99.90;;;;;;5033219;28;20826;-86
2021/08/16 03:29:35;;;;;;;3.73;1.77;;;18.70;99.90;;;;;;5033664;28;20453;-85
2021/08/16 03:32:02;;;;;;;2.40;1.83;;;18.70;99.90;;;;;;5033270;28;20486;-85
2021/08/16 03:34:29;;;;;;;2.50;1.87;;;18.60;99.90;;;;;;5033288;28;20443;-85
2021/08/16 03:36:56;;;;;;;3.03;1.77;;;18.70;99.90;;;;;;5033153;28;20898;-85
2021/08/16 03:39:23;;;;;;;2.50;1.40;;;18.70;99.90;;;;;;5033214;28;20493;-85
2021/08/16 03:41:50;;;;;;;2.47;1.83;;;18.70;99.90;;;;;;5034335;28;20473;-84
2021/08/16 03:44:18;;;;;;;5.00;1.93;;;18.60;99.90;;;;;;5033204;28;20457;-84
2021/08/16 03:46:45;;;;;;;3.63;1.90;;;18.50;99.90;;;;;;5033011;28;20526;-85
2021/08/16 03:49:12;;;;;;;3.03;2.00;;;18.60;99.90;;;;;;5033228;28;20446;-85
2021/08/16 03:51:38;;;;;;;1.33;1.20;;;18.60;99.90;;;;;;5033039;28;20490;-84
2021/08/16 03:54:05;;;;;;;3.43;1.47;;;18.60;99.90;;;;;;5033383;28;20454;-84
2021/08/16 03:56:32;;;;;;;2.97;1.93;;;18.60;99.90;;;;;;5033477;28;20813;-83
2021/08/16 03:58:59;;;;;;;2.40;1.13;;;18.60;99.90;;;;;;5036216;28;20440;-83
2021/08/16 04:01:27;;;;;;;4.77;2.00;;;18.60;99.90;;;;;;5036781;28;20477;-83
2021/08/16 04:03:54;;;;;;;2.10;1.47;;;18.60;99.90;;;;;;5036534;28;20930;-83
2021/08/16 04:06:20;;;;;;;4.90;2.07;;;18.60;99.90;;;;;;5037010;28;20493;-83
2021/08/16 04:08:47;;;;;;;6.23;2.53;;;18.60;99.90;;;;;;5036428;28;20431;-83
2021/08/16 04:11:14;;;;;;;1.47;1.37;;;18.60;99.90;;;;;;5036918;28;20474;-83
2021/08/16 04:13:41;;;;;;;2.00;1.60;;;18.60;99.90;;;;;;5036819;28;20454;-83
2021/08/16 04:16:08;;;;;;;1.93;1.63;;;18.60;99.90;;;;;;5036693;28;20451;-83
2021/08/16 04:18:37;;;;;;;2.40;2.17;;;18.60;99.90;;;;;;5036241;28;20946;-83
2021/08/16 04:21:04;;;;;;;1.20;0.87;;;18.60;99.90;;;;;;5036604;28;20450;-83
2021/08/16 04:23:31;;;;;;;2.00;1.27;;;18.70;99.90;;;;;;5036187;28;20439;-83
2021/08/16 04:25:58;;;;;;;1.30;1.13;;;18.70;99.90;;;;;;5036429;28;20435;-83
2021/08/16 04:28:25;;;;;;;2.03;1.80;;;18.70;99.90;;;;;;5036323;28;20481;-83
2021/08/16 04:30:51;;;;;;;4.37;1.87;;;18.70;99.90;;;;;;5036306;28;20531;-83
2021/08/16 04:33:20;;;;;;;2.80;1.77;;;18.70;99.90;;;;;;5036144;28;20482;-83
2021/08/16 04:35:48;;;;;;;3.77;2.33;;;18.70;99.90;;;;;;5036191;28;20460;-83
2021/08/16 04:38:19;;;;;;;2.03;1.20;;;18.70;99.90;;;;;;5036064;28;20801;-83
2021/08/16 04:40:46;;;;;;;2.07;1.97;;;18.80;99.90;;;;;;5035866;28;20435;-83
2021/08/16 04:43:12;;;;;;;2.10;1.30;;;18.80;99.90;;;;;;5035983;28;20516;-83
2021/08/16 04:45:39;;;;;;;3.10;1.57;;;18.80;99.90;;;;;;5035795;28;20439;-84
2021/08/16 04:48:07;;;;;;;7.53;1.67;;;18.80;99.90;;;;;;5035735;28;20497;-84
2021/08/16 04:50:33;;;;;;;1.30;1.13;;;18.70;99.90;;;;;;5035994;28;20489;-83
2021/08/16 04:53:02;;;;;;;2.03;1.93;;;18.80;99.90;;;;;;5035727;28;20501;-84
2021/08/16 04:55:28;;;;;;;1.07;1.07;;;18.80;99.90;;;;;;5036042;28;20458;-83
2021/08/16 04:57:55;;;;;;;1.53;1.43;;;18.80;99.90;;;;;;5035958;28;20463;-84
2021/08/16 05:03:24;;;;;;;1.50;1.20;;;18.80;99.90;;;;;;4994105;28;20456;-83
2021/08/16 05:06:05;;;;;;;1.90;1.13;;;18.90;99.90;;;;;;5035309;28;20465;-83
2021/08/16 05:08:57;;;;;;;0.97;0.90;;;18.80;99.90;;;;;;5034406;28;20937;-83
2021/08/16 05:11:25;;;;;;;3.10;1.33;;;18.80;99.90;;;;;;5036145;28;20443;-83
2021/08/16 05:13:54;;;;;;;1.47;1.37;;;18.80;99.90;;;;;;5035531;28;20439;-83
2021/08/16 05:16:23;;;;;;;1.60;1.13;;;18.80;99.90;;;;;;5035473;28;20427;-83
2021/08/16 05:18:51;;;;;;;3.00;1.43;;;18.80;99.90;;;;;;5035674;28;20435;-83
2021/08/16 05:21:18;;;;;;;1.23;1.13;;;18.80;99.90;;;;;;5034945;28;20532;-83
2021/08/16 05:23:46;;;;;;;1.73;1.63;;;18.80;99.90;;;;;;5035198;28;20846;-83
2021/08/16 05:26:13;;;;;;;1.20;1.10;;;18.80;99.90;;;;;;5035201;28;20504;-83
2021/08/16 05:28:40;;;;;;;2.63;1.53;;;18.80;99.90;;;;;;5035063;28;20961;-83
2021/08/16 05:31:07;;;;;;;1.33;1.20;;;18.80;99.90;;;;;;5035285;28;20471;-83
2021/08/16 05:33:34;;;;;;;1.70;1.60;;;18.80;99.90;;;;;;5035157;28;20562;-83
2021/08/16 05:36:00;;;;;;;1.57;1.30;;;18.90;99.90;;;;;;5034807;28;20452;-83
2021/08/16 05:38:27;;;;;;;0.90;0.90;;;18.90;99.90;;;;;;5034772;28;20469;-83
2021/08/16 05:40:55;;;;;;;2.50;1.57;;;19.00;99.90;;;;;;5035847;28;20781;-83
2021/08/16 05:43:22;;;;;;;2.60;1.70;;;19.00;99.90;;;;;;5034936;28;20463;-83
2021/08/16 05:45:49;;;;;;;2.27;1.43;;;19.10;99.90;;;;;;5034743;28;20450;-83
2021/08/16 05:48:17;;;;;;;1.87;1.67;;;19.10;99.90;;;;;;5034679;28;20803;-83
2021/08/16 05:50:44;;;;;;;1.20;1.10;;;19.10;99.90;;;;;;5034797;28;20447;-83
2021/08/16 05:53:11;;;;;;;2.70;1.50;;;19.10;99.90;;;;;;5034583;28;20494;-83
2021/08/16 05:55:38;;;;;;;1.57;1.47;;;19.10;99.90;;;;;;5035140;28;20505;-83
2021/08/16 05:58:07;;;;;;;2.50;1.53;;;19.10;99.90;;;;;;5034648;28;20494;-83
2021/08/16 06:00:33;;;;;;;1.40;1.30;;;19.10;99.90;;;;;;5034341;28;21028;-83
2021/08/16 06:03:00;;;;;;;3.43;1.20;;;19.10;99.90;;;;;;5034245;28;20459;-83
2021/08/16 06:05:27;;;;;;;2.70;1.87;;;19.10;99.90;;;;;;5034530;28;20450;-83
2021/08/16 06:07:54;;;;;;;1.00;1.00;;;19.10;99.90;;;;;;5034452;28;20446;-83
2021/08/16 06:10:21;;;;;;;2.23;1.83;;;19.10;99.90;;;;;;5034223;28;20412;-83
2021/08/16 06:12:47;;;;;;;1.33;0.93;;;19.20;99.90;;;;;;5034280;28;20494;-83
2021/08/16 06:15:15;;;;;;;4.67;2.80;;;19.30;99.90;;;;;;5033993;28;20462;-83
2021/08/16 06:17:42;;;;;;;1.10;0.97;;;19.30;99.90;;;;;;5034039;28;20427;-83
2021/08/16 06:20:11;;;;;;;1.33;1.30;;;19.40;99.90;;;;;;5033827;28;20461;-83
2021/08/16 06:22:38;;;;;;;1.10;1.00;;;19.50;99.90;;;;;;5034113;28;20562;-85
2021/08/16 06:25:06;;;;;;;3.23;1.40;;;19.60;99.90;;;;;;5034269;28;20819;-84
2021/08/16 06:27:33;;;;;;;2.53;1.37;;;19.60;99.90;;;;;;5034005;28;20443;-85
2021/08/16 06:30:00;;;;;;;1.03;0.97;;;19.70;99.90;;;;;;5034136;28;20462;-85
2021/08/16 06:32:29;;;;;;;1.30;1.20;;;19.60;99.90;;;;;;5033974;28;20490;-84
2021/08/16 06:34:55;;;;;;;1.57;0.87;;;19.60;99.90;;;;;;5033973;28;20497;-84
2021/08/16 06:37:22;;;;;;;1.20;1.03;;;19.60;99.90;;;;;;5034028;28;20450;-84
2021/08/16 06:39:49;;;;;;;1.53;0.97;;;19.60;99.90;;;;;;5033661;28;20486;-84
2021/08/16 06:42:16;;;;;;;1.73;1.20;;;19.60;99.90;;;;;;5033870;28;20545;-86
2021/08/16 06:44:43;;;;;;;2.07;1.00;;;19.60;99.90;;;;;;5033918;28;20454;-85
2021/08/16 06:47:09;;;;;;;1.57;0.90;;;19.70;99.90;;;;;;5033863;28;20454;-85
2021/08/16 06:49:38;;;;;;;1.87;1.27;;;19.70;99.90;;;;;;5033475;28;20453;-85
2021/08/16 06:52:05;;;;;;;0.80;0.70;;;19.80;99.90;;;;;;5033557;28;20486;-84
2021/08/16 06:54:32;;;;;;;1.57;0.60;;;19.90;99.90;;;;;;5033725;28;20447;-84
2021/08/16 06:56:59;;;;;;;1.77;0.80;;;20.00;99.90;;;;;;5033639;28;20451;-83
2021/08/16 06:59:26;;;;;;;1.27;0.93;;;20.00;99.90;;;;;;5033627;28;20447;-84
2021/08/16 07:01:52;;;;;;;5.27;1.00;;;19.90;99.90;;;;;;5033616;28;20823;-84
2021/08/16 07:04:19;;;;;;;0.70;0.70;;;19.80;99.90;;;;;;5033796;28;20454;-84
2021/08/16 07:06:47;;;;;;;2.17;0.90;;;19.70;99.90;;;;;;5033513;28;20450;-85
2021/08/16 07:09:14;;;;;;;1.30;0.80;;;19.60;99.90;;;;;;5033463;28;20455;-84
2021/08/16 07:11:41;;;;;;;0.47;0.47;;;19.70;99.90;;;;;;5033376;28;20455;-85
2021/08/16 07:14:07;;;;;;;0.87;0.77;;;19.80;99.90;;;;;;5033362;28;20482;-85
2021/08/16 07:16:34;;;;;;;0.60;0.60;;;19.80;99.90;;;;;;5033378;28;20450;-84
2021/08/16 07:19:01;;;;;;;2.20;0.80;;;19.90;99.90;;;;;;5033411;28;20455;-85
2021/08/16 07:21:28;;;;;;;1.03;0.70;;;19.90;99.90;;;;;;5033028;28;20478;-85
2021/08/16 07:23:56;;;;;;;0.80;0.70;;;20.00;99.90;;;;;;5033638;28;20442;-85
2021/08/16 07:26:23;;;;;;;1.37;1.20;;;20.00;99.90;;;;;;5033537;28;20434;-85
2021/08/16 07:28:49;;;;;;;3.80;1.00;;;20.10;99.90;;;;;;5033595;28;20435;-86
2021/08/16 07:31:16;;;;;;;0.90;0.77;;;20.00;99.90;;;;;;5033426;28;20423;-86
2021/08/16 07:33:43;;;;;;;1.73;0.80;;;20.00;99.90;;;;;;5036505;28;20519;-85
2021/08/16 07:36:10;;;;;;;2.17;1.20;;;19.90;99.90;;;;;;5037568;28;20430;-85
2021/08/16 07:38:36;;;;;;;0.90;0.80;;;19.90;99.90;;;;;;5037240;28;20478;-86
2021/08/16 07:41:05;;;;;;;1.20;1.10;;;19.90;99.90;;;;;;5037598;28;20442;-85
2021/08/16 07:43:31;;;;;;;0.60;0.60;;;19.80;99.90;;;;;;5037559;28;20438;-86
2021/08/16 07:45:58;;;;;;;1.00;0.60;;;19.80;99.90;;;;;;5037112;28;20922;-85
2021/08/16 07:48:25;;;;;;;0.60;0.60;;;19.80;99.90;;;;;;5037507;28;20793;-86
2021/08/16 07:50:52;;;;;;;1.50;1.20;;;19.70;99.90;;;;;;5037490;28;20447;-86
2021/08/16 07:53:18;;;;;;;0.57;0.57;;;19.80;99.90;;;;;;5037508;28;20478;-86
2021/08/16 07:55:45;;;;;;;0.50;0.50;;;19.80;99.90;;;;;;5037401;28;20856;-86
2021/08/16 07:58:13;;;;;;;1.50;0.73;;;19.90;99.90;;;;;;5037353;28;20450;-86
2021/08/16 08:00:40;;;;;;;6.90;1.30;;;19.90;99.90;;;;;;5037265;28;20952;-86
2021/08/16 08:03:07;;;;;;;0.60;0.57;;;20.10;99.90;;;;;;5037165;28;20454;-86
2021/08/16 08:05:34;;;;;;;1.03;0.77;;;20.10;99.90;;;;;;5037098;28;20454;-86
2021/08/16 08:08:00;;;;;;;0.60;0.60;;;20.20;99.90;;;;;;5037143;28;20453;-86
2021/08/16 08:10:27;;;;;;;1.23;0.70;;;20.30;99.90;;;;;;5037189;28;20450;-86
2021/08/16 08:12:54;;;;;;;1.27;0.97;;;20.50;99.90;;;;;;5036464;28;20486;-86
2021/08/16 08:15:22;;;;;;;1.30;0.50;;;20.60;99.90;;;;;;5036821;28;20430;-86
2021/08/16 08:17:50;;;;;;;0.77;0.70;;;20.70;99.90;;;;;;5036538;28;20960;-85
2021/08/16 08:20:16;;;;;;;0.77;0.73;;;20.80;99.90;;;;;;5036402;28;20450;-86
2021/08/16 08:22:43;;;;;;;2.03;1.00;;;20.90;99.90;;;;;;5036662;28;20472;-86
2021/08/16 08:25:11;;;;;;;0.60;0.60;;;20.90;99.90;;;;;;5036756;28;20453;-86
2021/08/16 08:27:37;;;;;;;1.13;0.50;;;21.00;99.90;;;;;;5036687;28;20445;-86
2021/08/16 08:30:06;;;;;;;0.57;0.57;;;21.20;99.90;;;;;;5036537;28;20458;-85
2021/08/16 08:32:44;;;;;;;1.00;0.90;;;21.40;99.90;;;;;;5036192;28;20560;-86
2021/08/16 08:35:11;;;;;;;0.80;0.80;;;21.50;99.90;;;;;;5036273;28;20922;-85
2021/08/16 08:37:38;;;;;;;0.70;0.60;;;21.50;99.90;;;;;;5036341;28;20450;-85
2021/08/16 08:40:06;;;;;;;1.00;0.73;;;21.50;99.90;;;;;;5036009;28;20473;-86
2021/08/16 08:42:33;;;;;;;1.87;1.03;;;21.50;99.90;;;;;;5036174;28;20541;-85
2021/08/16 08:45:01;;;;;;;0.80;0.80;;;21.40;99.90;;;;;;5035995;28;20822;-86
2021/08/16 08:47:28;;;;;;;2.27;1.40;;;21.40;99.90;;;;;;5036272;28;20438;-86
2021/08/16 08:49:56;;;;;;;0.90;0.70;;;21.40;99.90;;;;;;5036032;28;20442;-86
2021/08/16 08:52:23;;;;;;;0.70;0.70;;;21.50;99.90;;;;;;5036083;28;20474;-85
2021/08/16 08:54:49;;;;;;;1.97;0.70;;;21.50;99.90;;;;;;5035942;28;20427;-86
2021/08/16 08:57:19;;;;;;;2.83;0.77;;;21.40;99.90;;;;;;5036156;28;20457;-86
2021/08/16 08:59:46;;;;;;;1.87;0.90;;;21.30;99.90;;;;;;5036058;28;20792;-86
2021/08/16 09:02:14;;;;;;;1.40;0.80;;;21.30;99.90;;;;;;5035911;28;20464;-87
2021/08/16 09:04:51;;;;;;;1.67;0.90;;;21.30;99.90;;;;;;5039611;28;20899;-86
2021/08/16 09:07:30;;;;;;;1.27;0.80;;;21.10;99.90;;;;;;5035939;28;20469;-86
2021/08/16 09:09:57;;;;;;;2.40;0.90;;;21.10;99.90;;;;;;5036179;28;20761;-86
2021/08/16 09:12:32;;;;;;;1.07;0.60;;;20.90;99.90;;;;;;5035912;28;20978;-86
2021/08/16 09:14:59;;;;;;;0.70;0.70;;;20.80;99.90;;;;;;5034887;28;20421;-89
2021/08/16 09:17:30;;;;;;;1.90;0.90;;;20.60;99.90;;;;;;5035453;28;20465;-86
2021/08/16 09:19:57;;;;;;;0.97;0.90;;;20.50;99.90;;;;;;5035620;28;20426;-86
2021/08/16 09:22:32;;;;;;;0.57;0.50;;;20.40;99.90;;;;;;5035935;28;20462;-86
2021/08/16 09:25:06;;;;;;;0.47;0.47;;;20.40;99.90;;;;;;5035744;28;20445;-87
2021/08/16 09:27:34;;;;;;;0.60;0.60;;;20.40;99.90;;;;;;5035767;28;20793;-86
2021/08/16 09:30:01;;;;;;;8.00;1.37;;;20.40;99.90;;;;;;5035698;28;20448;-86
2021/08/16 09:32:32;;;;;;;2.80;0.80;;;20.30;99.90;;;;;;5035683;28;20840;-87
2021/08/16 09:35:06;;;;;;;0.80;0.70;;;20.20;99.90;;;;;;5035621;28;20801;-86
2021/08/16 09:37:35;;;;;;;0.83;0.83;;;20.20;99.90;;;;;;5035668;28;20434;-85
2021/08/16 09:40:05;;;;;;;1.20;1.10;;;20.10;99.90;;;;;;5034966;28;20478;-86
2021/08/16 09:42:45;;;;;;;0.70;0.60;;;20.00;99.90;;;;;;5034757;28;20470;-85
2021/08/16 09:45:13;;;;;;;1.70;0.60;;;19.90;99.90;;;;;;5035045;28;20430;-84
2021/08/16 09:47:42;;;;;;;1.57;0.60;;;19.90;99.90;;;;;;5034945;28;20438;-84
2021/08/16 09:50:10;;;;;;;0.70;0.40;;;20.00;99.90;;;;;;5034965;28;20450;-84
2021/08/16 09:52:38;;;;;;;1.37;0.50;;;20.20;99.90;;;;;;5034733;28;20513;-80
2021/08/16 09:55:06;;;;;;;1.67;1.00;;;20.60;99.90;;;;;;5033905;28;20973;-86
2021/08/16 09:57:34;;;;;;;1.63;0.93;;;20.90;99.90;;;;;;5034853;28;20460;-85
2021/08/16 10:00:01;;;;;;;0.63;0.60;;;21.20;99.90;;;;;;5034789;28;20442;-85
2021/08/16 10:02:27;;;;;;;2.63;0.97;;;21.50;99.90;;;;;;5034764;28;20545;-85
2021/08/16 10:04:56;;;;;;;1.40;0.60;;;21.60;99.90;;;;;;5034700;28;20449;-85
2021/08/16 10:07:28;;;;;;;0.60;0.60;;;21.60;99.90;;;;;;5034695;28;20445;-85
2021/08/16 10:09:59;;;;;;;0.80;0.57;;;21.70;99.90;;;;;;5034797;28;20434;-86
2021/08/16 10:12:27;;;;;;;0.60;0.60;;;21.70;99.90;;;;;;5035191;28;20871;-85
2021/08/16 10:14:55;;;;;;;0.60;0.50;;;21.70;99.90;;;;;;5034192;28;20485;-85
2021/08/16 10:17:27;;;;;;;0.60;0.60;;;21.50;99.90;;;;;;5034779;28;20493;-85
2021/08/16 10:19:57;;;;;;;0.43;0.43;;;21.30;99.90;;;;;;5034164;28;20431;-86
2021/08/16 10:22:24;;;;;;;0.70;0.40;;;21.10;99.90;;;;;;5034469;28;20466;-85
2021/08/16 10:24:52;;;;;;;2.13;0.67;;;21.00;99.90;;;;;;5035315;28;20457;-86
2021/08/16 10:27:30;;;;;;;2.03;0.77;;;20.80;99.90;;;;;;5034074;28;20434;-86
2021/08/16 10:30:06;;;;;;;3.50;1.30;;;20.70;99.90;;;;;;5034445;28;20906;-85
2021/08/16 10:32:33;;;;;;;1.23;0.60;;;20.60;99.90;;;;;;5034175;28;20466;-85
2021/08/16 10:35:06;;;;;;;0.60;0.50;;;20.50;99.90;;;;;;5034096;28;20474;-85
2021/08/16 10:37:37;;;;;;;0.73;0.60;;;20.60;99.90;;;;;;5034083;28;20453;-85
2021/08/16 10:40:14;;;;;;;0.97;0.60;;;20.60;99.90;;;;;;5033560;28;20481;-85
2021/08/16 10:42:42;;;;;;;0.63;0.50;;;20.70;99.90;;;;;;5034019;28;20470;-85
2021/08/16 10:45:10;;;;;;;0.67;0.67;;;20.80;99.90;;;;;;5033971;28;20451;-85
2021/08/16 10:47:38;;;;;;;0.50;0.50;;;20.80;99.90;;;;;;5033984;28;20473;-85
2021/08/16 10:50:07;;;;;;;0.90;0.80;;;20.90;99.90;;;;;;5034444;28;20449;-84
2021/08/16 10:52:36;;;;;;;1.03;0.90;;;21.00;99.90;;;;;;5033777;28;20466;-85
2021/08/16 10:55:13;;;;;;;1.73;0.50;;;21.10;99.90;;;;;;5033503;28;20566;-84
2021/08/16 10:57:42;;;;;;;1.00;0.80;;;21.00;99.90;;;;;;5034093;28;20435;-85
2021/08/16 11:00:10;;;;;;;0.50;0.50;;;21.10;99.90;;;;;;5033685;28;20525;-85
2021/08/16 11:02:39;;;;;;;0.60;0.50;;;21.20;99.90;;;;;;5033611;28;20462;-84
2021/08/16 11:05:06;;;;;;;0.67;0.60;;;21.30;99.90;;;;;;5033630;28;20470;-85
2021/08/16 11:07:33;;;;;;;1.00;0.80;;;21.40;99.90;;;;;;5033575;28;20450;-84
2021/08/16 11:10:01;;;;;;;0.67;0.67;;;21.70;99.90;;;;;;5033585;28;20458;-84
2021/08/16 11:12:33;;;;;;;1.30;0.77;;;21.80;99.90;;;;;;5033417;28;20466;-84
2021/08/16 11:15:02;;;;;;;0.60;0.57;;;21.90;99.90;;;;;;5033437;28;20473;-84
2021/08/16 11:17:29;;;;;;;0.97;0.50;;;22.00;99.90;;;;;;5033153;28;20431;-84
2021/08/16 11:19:58;;;;;;;4.83;1.10;;;22.00;99.90;;;;;;5033399;28;20458;-84
2021/08/16 11:22:26;;;;;;;1.57;0.90;;;21.90;99.90;;;;;;5033317;28;20485;-84
2021/08/16 11:24:53;;;;;;;0.40;0.40;;;21.80;99.90;;;;;;5036768;28;20447;-85
2021/08/16 11:27:22;;;;;;;0.70;0.70;;;21.70;99.90;;;;;;5033402;28;20525;-85
2021/08/16 11:29:57;;;;;;;0.53;0.53;;;21.60;99.90;;;;;;5033203;28;20442;-85
2021/08/16 11:32:28;;;;;;;2.83;0.70;;;21.70;99.90;;;;;;5033259;28;20531;-84
2021/08/16 11:34:55;;;;;;;1.07;0.83;;;22.10;99.90;;;;;;5033095;28;20485;-84
2021/08/16 11:37:23;;;;;;;1.80;0.90;;;22.50;99.90;;;;;;5033212;28;20465;-84
2021/08/16 11:39:52;;;;;;;1.13;0.60;;;22.80;99.90;;;;;;5032964;28;20469;-84
2021/08/16 11:42:19;;;;;;;4.67;1.53;;;23.00;99.90;;;;;;5032885;28;20706;-84
2021/08/16 11:44:56;;;;;;;4.27;0.60;;;23.00;99.90;;;;;;5033137;28;20203;-84
2021/08/16 11:47:30;;;;;;;1.30;0.87;;;22.80;99.90;;;;;;5033340;28;20183;-85
2021/08/16 11:50:01;;;;;;;0.53;0.53;;;22.80;99.90;;;;;;5033222;28;20442;-87
2021/08/16 11:52:29;;;;;;;0.73;0.60;;;22.70;99.90;;;;;;5033190;28;20474;-85
2021/08/16 11:54:58;;;;;;;0.90;0.90;;;22.90;99.90;;;;;;5032716;28;20474;-84
2021/08/16 11:57:24;;;;;;;3.13;0.90;;;23.00;99.90;;;;;;5033119;28;20207;-84
2021/08/16 11:59:52;;;;;;;1.50;0.87;;;23.10;99.90;;;;;;5033013;28;20214;-84
2021/08/16 12:02:22;;;;;;;1.10;0.67;;;22.90;99.90;;;;;;5033052;28;20465;-84
2021/08/16 12:04:52;;;;;;;0.57;0.57;;;22.70;99.90;;;;;;5032743;28;20797;-84
2021/08/16 12:07:20;;;;;;;1.97;1.00;;;22.60;99.90;;;;;;5033055;28;20191;-84
2021/08/16 12:09:47;;;;;;;0.80;0.57;;;22.50;99.90;;;;;;5033283;28;20568;-83
2021/08/16 12:12:14;;;;;;;0.60;0.50;;;22.60;99.90;;;;;;5032541;28;20238;-84
2021/08/16 12:14:41;;;;;;;1.83;0.90;;;22.80;99.90;;;;;;5032569;28;20230;-84
2021/08/16 12:17:08;;;;;;;0.60;0.60;;;22.90;99.90;;;;;;5032872;28;20214;-84
2021/08/16 12:19:35;;;;;;;0.97;0.67;;;22.80;99.90;;;;;;5034517;28;20446;-84
2021/08/16 12:22:06;;;;;;;1.00;0.57;;;22.50;99.90;;;;;;5035906;28;20215;-83
2021/08/16 12:24:33;;;;;;;1.93;0.70;;;22.40;99.90;;;;;;5036270;28;21060;-84
2021/08/16 12:27:02;;;;;;;2.30;0.90;;;22.40;99.90;;;;;;5036357;28;20454;-85
2021/08/16 12:29:29;;;;;;;0.50;0.50;;;22.30;99.90;;;;;;5036499;28;20441;-83
2021/08/16 12:31:56;;;;;;;2.30;0.60;;;22.20;99.90;;;;;;5036412;28;20470;-83
2021/08/16 12:34:33;;;;;;;0.73;0.50;;;22.20;99.90;;;;;;5036434;28;20535;-82
2021/08/16 12:37:00;;;;;;;1.53;0.80;;;22.30;99.90;;;;;;5036248;28;20458;-83
2021/08/16 12:39:34;;;;;;;0.70;0.70;;;22.40;99.90;;;;;;5036020;28;20825;-83
2021/08/16 12:42:08;;;;;;;3.20;0.80;;;22.40;99.90;;;;;;5035883;28;20450;-83
2021/08/16 12:44:36;;;;;;;1.40;0.43;;;22.40;99.90;;;;;;5036116;28;20445;-82
2021/08/16 12:47:05;;;;;;;2.40;0.70;;;22.40;99.90;;;;;;5036020;28;20466;-83
2021/08/16 12:49:33;;;;;;;1.00;0.67;;;22.30;99.90;;;;;;5035727;28;20942;-82
2021/08/16 12:52:00;;;;;;;2.23;0.90;;;22.20;99.90;;;;;;5035992;28;20473;-82
2021/08/16 12:54:27;;;;;;;1.77;0.90;;;22.30;99.90;;;;;;5035899;28;20525;-82
2021/08/16 12:56:56;;;;;;;0.77;0.77;;;22.30;99.90;;;;;;5035907;28;20472;-83